sensor_id;sensor_type;location;lat;lon;timestamp;temperature;humidity
10314;DHT22;5202;49.138;10.090;2023-09-19T00:01:22;16.70;99.90
10314;DHT22;5202;49.138;10.090;2023-09-19T00:03:51;16.70;99.90
10314;DHT22;5202;49.138;10.090;2023-09-19T00:06:20;16.70;99.90
10314;DHT22;5202;49.138;10.090;2023-09-19T00:08:50;16.70;99.90
10314;DHT22;5202;49.138;10.090;2023-09-19T00:11:18;16.60;99.90
10314;DHT22;5202;49.138;10.090;2023-09-19T00:13:49;16.60;99.90
10314;DHT22;5202;49.138;10.090;2023-09-19T00:16:18;16.60;99.90
10314;DHT22;5202;49.138;10.090;2023-09-19T00:18:46;16.60;99.90
10314;DHT22;5202;49.138;10.090;2023-09-19T00:21:15;16.50;99.90
10314;DHT22;5202;49.138;10.090;2023-09-19T00:23:46;16.50;99.90
10314;DHT22;5202;49.138;10.090;2023-09-19T00:26:14;16.50;99.90
10314;DHT22;5202;49.138;10.090;2023-09-19T00:28:48;16.50;99.90
10314;DHT22;5202;49.138;10.090;2023-09-19T00:31:20;16.50;99.90
10314;DHT22;5202;49.138;10.090;2023-09-19T00:33:53;16.50;99.90
10314;DHT22;5202;49.138;10.090;2023-09-19T00:36:25;16.50;99.90
10314;DHT22;5202;49.138;10.090;2023-09-19T00:38:53;16.50;99.90
10314;DHT22;5202;49.138;10.090;2023-09-19T00:41:21;16.50;99.90
10314;DHT22;5202;49.138;10.090;2023-09-19T00:43:53;16.50;99.90
10314;DHT22;5202;49.138;10.090;2023-09-19T00:46:21;16.50;99.90
10314;DHT22;5202;49.138;10.090;2023-09-19T00:48:50;16.50;99.90
10314;DHT22;5202;49.138;10.090;2023-09-19T00:51:20;16.50;99.90
10314;DHT22;5202;49.138;10.090;2023-09-19T00:53:49;16.50;99.90
10314;DHT22;5202;49.138;10.090;2023-09-19T00:56:19;16.50;99.90
10314;DHT22;5202;49.138;10.090;2023-09-19T00:58:48;16.50;99.90
10314;DHT22;5202;49.138;10.090;2023-09-19T01:01:18;16.40;99.90
10314;DHT22;5202;49.138;10.090;2023-09-19T01:03:47;16.40;99.90
10314;DHT22;5202;49.138;10.090;2023-09-19T01:06:16;16.40;99.90
10314;DHT22;5202;49.138;10.090;2023-09-19T01:08:44;16.40;99.90
10314;DHT22;5202;49.138;10.090;2023-09-19T01:11:16;16.40;99.90
10314;DHT22;5202;49.138;10.090;2023-09-19T01:13:56;16.40;99.90
10314;DHT22;5202;49.138;10.090;2023-09-19T01:16:35;16.40;99.90
10314;DHT22;5202;49.138;10.090;2023-09-19T01:22:26;16.30;99.90
10314;DHT22;5202;49.138;10.090;2023-09-19T01:25:33;16.30;99.90
10314;DHT22;5202;49.138;10.090;2023-09-19T01:28:39;16.30;99.90
10314;DHT22;5202;49.138;10.090;2023-09-19T01:31:24;16.20;99.90
10314;DHT22;5202;49.138;10.090;2023-09-19T01:33:58;16.20;99.90
10314;DHT22;5202;49.138;10.090;2023-09-19T01:36:28;16.20;99.90
10314;DHT22;5202;49.138;10.090;2023-09-19T01:38:58;16.20;99.90
10314;DHT22;5202;49.138;10.090;2023-09-19T01:41:47;16.20;99.90
10314;DHT22;5202;49.138;10.090;2023-09-19T01:44:31;16.20;99.90
10314;DHT22;5202;49.138;10.090;2023-09-19T01:47:28;16.20;99.90
10314;DHT22;5202;49.138;10.090;2023-09-19T01:50:11;16.20;99.90
10314;DHT22;5202;49.138;10.090;2023-09-19T01:52:47;16.20;99.90
10314;DHT22;5202;49.138;10.090;2023-09-19T01:55:17;16.20;99.90
10314;DHT22;5202;49.138;10.090;2023-09-19T01:57:51;16.10;99.90
10314;DHT22;5202;49.138;10.090;2023-09-19T02:00:23;16.10;99.90
10314;DHT22;5202;49.138;10.090;2023-09-19T02:02:54;16.00;99.90
10314;DHT22;5202;49.138;10.090;2023-09-19T02:05:26;16.00;99.90
10314;DHT22;5202;49.138;10.090;2023-09-19T02:07:55;16.00;99.90
10314;DHT22;5202;49.138;10.090;2023-09-19T02:10:25;16.00;99.90
10314;DHT22;5202;49.138;10.090;2023-09-19T02:12:54;15.90;99.90
10314;DHT22;5202;49.138;10.090;2023-09-19T02:15:23;15.90;99.90
10314;DHT22;5202;49.138;10.090;2023-09-19T02:17:51;15.90;99.90
10314;DHT22;5202;49.138;10.090;2023-09-19T02:20:24;15.80;99.90
10314;DHT22;5202;49.138;10.090;2023-09-19T02:22:53;15.80;99.90
10314;DHT22;5202;49.138;10.090;2023-09-19T02:25:22;15.90;99.90
10314;DHT22;5202;49.138;10.090;2023-09-19T02:27:50;15.90;99.90
10314;DHT22;5202;49.138;10.090;2023-09-19T02:30:23;15.80;99.90
10314;DHT22;5202;49.138;10.090;2023-09-19T02:32:53;15.90;99.90
10314;DHT22;5202;49.138;10.090;2023-09-19T02:35:22;15.90;99.90
10314;DHT22;5202;49.138;10.090;2023-09-19T02:37:53;15.90;99.90
10314;DHT22;5202;49.138;10.090;2023-09-19T02:40:21;15.90;99.90
10314;DHT22;5202;49.138;10.090;2023-09-19T02:42:54;15.90;99.90
10314;DHT22;5202;49.138;10.090;2023-09-19T02:45:25;15.90;99.90
10314;DHT22;5202;49.138;10.090;2023-09-19T02:47:55;15.90;99.90
10314;DHT22;5202;49.138;10.090;2023-09-19T02:50:24;15.90;99.90
10314;DHT22;5202;49.138;10.090;2023-09-19T02:52:52;15.90;99.90
10314;DHT22;5202;49.138;10.090;2023-09-19T02:55:21;15.90;99.90
10314;DHT22;5202;49.138;10.090;2023-09-19T02:57:51;15.90;99.90
10314;DHT22;5202;49.138;10.090;2023-09-19T03:00:22;15.90;99.90
10314;DHT22;5202;49.138;10.090;2023-09-19T03:02:54;15.90;99.90
10314;DHT22;5202;49.138;10.090;2023-09-19T03:05:24;16.00;99.90
10314;DHT22;5202;49.138;10.090;2023-09-19T03:07:53;15.90;99.90
10314;DHT22;5202;49.138;10.090;2023-09-19T03:10:23;15.90;99.90
10314;DHT22;5202;49.138;10.090;2023-09-19T03:12:52;15.90;99.90
10314;DHT22;5202;49.138;10.090;2023-09-19T03:15:21;15.90;99.90
10314;DHT22;5202;49.138;10.090;2023-09-19T03:17:51;15.90;99.90
10314;DHT22;5202;49.138;10.090;2023-09-19T03:20:23;15.90;99.90
10314;DHT22;5202;49.138;10.090;2023-09-19T03:22:52;15.90;99.90
10314;DHT22;5202;49.138;10.090;2023-09-19T03:25:22;15.80;99.90
10314;DHT22;5202;49.138;10.090;2023-09-19T03:27:52;15.80;99.90
10314;DHT22;5202;49.138;10.090;2023-09-19T03:30:22;15.80;99.90
10314;DHT22;5202;49.138;10.090;2023-09-19T03:32:51;15.70;99.90
10314;DHT22;5202;49.138;10.090;2023-09-19T03:35:20;15.70;99.90
10314;DHT22;5202;49.138;10.090;2023-09-19T03:37:50;15.60;99.90
10314;DHT22;5202;49.138;10.090;2023-09-19T03:40:19;15.60;99.90
10314;DHT22;5202;49.138;10.090;2023-09-19T03:42:49;15.60;99.90
10314;DHT22;5202;49.138;10.090;2023-09-19T03:45:17;15.60;99.90
10314;DHT22;5202;49.138;10.090;2023-09-19T03:47:49;15.50;99.90
10314;DHT22;5202;49.138;10.090;2023-09-19T03:50:20;15.50;99.90
10314;DHT22;5202;49.138;10.090;2023-09-19T03:52:56;15.40;99.90
10314;DHT22;5202;49.138;10.090;2023-09-19T03:55:25;15.30;99.90
10314;DHT22;5202;49.138;10.090;2023-09-19T03:57:54;15.30;99.90
10314;DHT22;5202;49.138;10.090;2023-09-19T04:00:22;15.20;99.90
10314;DHT22;5202;49.138;10.090;2023-09-19T04:02:53;15.30;99.90
10314;DHT22;5202;49.138;10.090;2023-09-19T04:05:24;15.30;99.90
10314;DHT22;5202;49.138;10.090;2023-09-19T04:07:53;15.30;99.90
10314;DHT22;5202;49.138;10.090;2023-09-19T04:10:22;15.30;99.90
10314;DHT22;5202;49.138;10.090;2023-09-19T04:12:51;15.20;99.90
10314;DHT22;5202;49.138;10.090;2023-09-19T04:15:22;15.20;99.90
10314;DHT22;5202;49.138;10.090;2023-09-19T04:17:53;15.20;99.90
10314;DHT22;5202;49.138;10.090;2023-09-19T04:20:21;15.30;99.90
10314;DHT22;5202;49.138;10.090;2023-09-19T04:22:51;15.20;99.90
10314;DHT22;5202;49.138;10.090;2023-09-19T04:25:21;15.30;99.90
10314;DHT22;5202;49.138;10.090;2023-09-19T04:27:49;15.30;99.90
10314;DHT22;5202;49.138;10.090;2023-09-19T04:30:18;15.40;99.90
10314;DHT22;5202;49.138;10.090;2023-09-19T04:32:48;15.40;99.90
10314;DHT22;5202;49.138;10.090;2023-09-19T04:35:19;15.40;99.90
10314;DHT22;5202;49.138;10.090;2023-09-19T04:37:47;15.40;99.90
10314;DHT22;5202;49.138;10.090;2023-09-19T04:40:16;15.40;99.90
10314;DHT22;5202;49.138;10.090;2023-09-19T04:42:54;15.40;99.90
10314;DHT22;5202;49.138;10.090;2023-09-19T04:45:24;15.40;99.90
10314;DHT22;5202;49.138;10.090;2023-09-19T04:47:53;15.30;99.90
10314;DHT22;5202;49.138;10.090;2023-09-19T04:50:23;15.30;99.90
10314;DHT22;5202;49.138;10.090;2023-09-19T04:52:55;15.30;99.90
10314;DHT22;5202;49.138;10.090;2023-09-19T04:55:23;15.40;99.90
10314;DHT22;5202;49.138;10.090;2023-09-19T04:57:53;15.40;99.90
10314;DHT22;5202;49.138;10.090;2023-09-19T05:00:23;15.40;99.90
10314;DHT22;5202;49.138;10.090;2023-09-19T05:02:52;15.50;99.90
10314;DHT22;5202;49.138;10.090;2023-09-19T05:05:23;15.50;99.90
10314;DHT22;5202;49.138;10.090;2023-09-19T05:07:53;15.50;99.90
10314;DHT22;5202;49.138;10.090;2023-09-19T05:10:23;15.50;99.90
10314;DHT22;5202;49.138;10.090;2023-09-19T05:12:54;15.60;99.90
10314;DHT22;5202;49.138;10.090;2023-09-19T05:15:23;15.60;99.90
10314;DHT22;5202;49.138;10.090;2023-09-19T05:17:52;15.60;99.90
10314;DHT22;5202;49.138;10.090;2023-09-19T05:20:24;15.60;99.90
10314;DHT22;5202;49.138;10.090;2023-09-19T05:23:00;15.60;99.90
10314;DHT22;5202;49.138;10.090;2023-09-19T05:25:30;15.60;99.90
10314;DHT22;5202;49.138;10.090;2023-09-19T05:28:01;15.60;99.90
10314;DHT22;5202;49.138;10.090;2023-09-19T05:30:31;15.60;99.90
10314;DHT22;5202;49.138;10.090;2023-09-19T05:33:00;15.60;99.90
10314;DHT22;5202;49.138;10.090;2023-09-19T05:35:29;15.60;99.90
10314;DHT22;5202;49.138;10.090;2023-09-19T05:37:57;15.60;99.90
10314;DHT22;5202;49.138;10.090;2023-09-19T05:40:26;15.60;99.90
10314;DHT22;5202;49.138;10.090;2023-09-19T05:42:55;15.70;99.90
10314;DHT22;5202;49.138;10.090;2023-09-19T05:45:25;15.70;99.90
10314;DHT22;5202;49.138;10.090;2023-09-19T05:47:54;15.70;99.90
10314;DHT22;5202;49.138;10.090;2023-09-19T05:50:28;15.70;99.90
10314;DHT22;5202;49.138;10.090;2023-09-19T05:52:56;15.70;99.90
10314;DHT22;5202;49.138;10.090;2023-09-19T05:55:25;15.70;99.90
10314;DHT22;5202;49.138;10.090;2023-09-19T05:57:56;15.70;99.90
10314;DHT22;5202;49.138;10.090;2023-09-19T06:00:26;15.70;99.90
10314;DHT22;5202;49.138;10.090;2023-09-19T06:02:57;15.70;99.90
10314;DHT22;5202;49.138;10.090;2023-09-19T06:05:27;15.70;99.90
10314;DHT22;5202;49.138;10.090;2023-09-19T06:08:02;15.80;99.90
10314;DHT22;5202;49.138;10.090;2023-09-19T06:10:35;15.80;99.90
10314;DHT22;5202;49.138;10.090;2023-09-19T06:13:04;15.80;99.90
10314;DHT22;5202;49.138;10.090;2023-09-19T06:15:34;15.70;99.90
10314;DHT22;5202;49.138;10.090;2023-09-19T06:18:04;15.80;99.90
10314;DHT22;5202;49.138;10.090;2023-09-19T06:20:33;15.80;99.90
10314;DHT22;5202;49.138;10.090;2023-09-19T06:23:03;15.80;99.90
10314;DHT22;5202;49.138;10.090;2023-09-19T06:25:31;15.90;99.90
10314;DHT22;5202;49.138;10.090;2023-09-19T06:28:00;15.90;99.90
10314;DHT22;5202;49.138;10.090;2023-09-19T06:30:33;15.90;99.90
10314;DHT22;5202;49.138;10.090;2023-09-19T06:33:02;15.90;99.90
10314;DHT22;5202;49.138;10.090;2023-09-19T06:35:32;15.90;99.90
10314;DHT22;5202;49.138;10.090;2023-09-19T06:38:02;15.90;99.90
10314;DHT22;5202;49.138;10.090;2023-09-19T06:40:31;15.90;99.90
10314;DHT22;5202;49.138;10.090;2023-09-19T06:43:05;15.90;99.90
10314;DHT22;5202;49.138;10.090;2023-09-19T06:45:35;15.90;99.90
10314;DHT22;5202;49.138;10.090;2023-09-19T06:48:04;16.00;99.90
10314;DHT22;5202;49.138;10.090;2023-09-19T06:50:33;16.00;99.90
10314;DHT22;5202;49.138;10.090;2023-09-19T06:53:03;16.00;99.90
10314;DHT22;5202;49.138;10.090;2023-09-19T06:55:31;15.90;99.90
10314;DHT22;5202;49.138;10.090;2023-09-19T06:58:01;15.90;99.90
10314;DHT22;5202;49.138;10.090;2023-09-19T07:00:29;15.90;99.90
10314;DHT22;5202;49.138;10.090;2023-09-19T07:03:01;16.00;99.90
10314;DHT22;5202;49.138;10.090;2023-09-19T07:05:32;16.00;99.90
10314;DHT22;5202;49.138;10.090;2023-09-19T07:08:07;16.00;99.90
10314;DHT22;5202;49.138;10.090;2023-09-19T07:10:36;16.10;99.90
10314;DHT22;5202;49.138;10.090;2023-09-19T07:13:06;16.20;99.90
10314;DHT22;5202;49.138;10.090;2023-09-19T07:15:38;16.20;99.90
10314;DHT22;5202;49.138;10.090;2023-09-19T07:18:15;16.30;99.90
10314;DHT22;5202;49.138;10.090;2023-09-19T07:20:45;16.30;99.90
10314;DHT22;5202;49.138;10.090;2023-09-19T07:23:16;16.40;99.90
10314;DHT22;5202;49.138;10.090;2023-09-19T07:25:45;16.40;99.90
10314;DHT22;5202;49.138;10.090;2023-09-19T07:28:14;16.40;99.90
10314;DHT22;5202;49.138;10.090;2023-09-19T07:30:43;16.40;99.90
10314;DHT22;5202;49.138;10.090;2023-09-19T07:33:12;16.40;99.90
10314;DHT22;5202;49.138;10.090;2023-09-19T07:35:45;16.40;99.90
10314;DHT22;5202;49.138;10.090;2023-09-19T07:38:14;16.40;99.90
10314;DHT22;5202;49.138;10.090;2023-09-19T07:40:43;16.40;99.90
10314;DHT22;5202;49.138;10.090;2023-09-19T07:43:11;16.40;99.90
10314;DHT22;5202;49.138;10.090;2023-09-19T07:45:40;16.40;99.90
10314;DHT22;5202;49.138;10.090;2023-09-19T07:48:10;16.40;99.90
10314;DHT22;5202;49.138;10.090;2023-09-19T07:50:43;16.50;99.90
10314;DHT22;5202;49.138;10.090;2023-09-19T07:53:11;16.40;99.90
10314;DHT22;5202;49.138;10.090;2023-09-19T07:55:42;16.40;99.90
10314;DHT22;5202;49.138;10.090;2023-09-19T07:58:15;16.50;99.90
10314;DHT22;5202;49.138;10.090;2023-09-19T08:00:43;16.50;99.90
10314;DHT22;5202;49.138;10.090;2023-09-19T08:03:13;16.60;99.90
10314;DHT22;5202;49.138;10.090;2023-09-19T08:05:56;16.60;99.90
10314;DHT22;5202;49.138;10.090;2023-09-19T08:08:41;16.60;99.90
10314;DHT22;5202;49.138;10.090;2023-09-19T08:11:09;16.80;99.90
10314;DHT22;5202;49.138;10.090;2023-09-19T08:13:40;17.00;99.90
10314;DHT22;5202;49.138;10.090;2023-09-19T08:16:11;17.10;99.90
10314;DHT22;5202;49.138;10.090;2023-09-19T08:18:39;17.20;99.90
10314;DHT22;5202;49.138;10.090;2023-09-19T08:21:11;17.00;99.90
10314;DHT22;5202;49.138;10.090;2023-09-19T08:23:43;17.00;99.90
10314;DHT22;5202;49.138;10.090;2023-09-19T08:26:12;17.00;99.90
10314;DHT22;5202;49.138;10.090;2023-09-19T08:28:41;16.90;99.90
10314;DHT22;5202;49.138;10.090;2023-09-19T08:31:09;16.90;99.90
10314;DHT22;5202;49.138;10.090;2023-09-19T08:33:39;16.90;99.90
10314;DHT22;5202;49.138;10.090;2023-09-19T08:36:10;16.80;99.90
10314;DHT22;5202;49.138;10.090;2023-09-19T08:38:41;16.80;99.90
10314;DHT22;5202;49.138;10.090;2023-09-19T08:41:09;16.70;99.90
10314;DHT22;5202;49.138;10.090;2023-09-19T08:43:39;16.70;99.90
10314;DHT22;5202;49.138;10.090;2023-09-19T08:46:10;16.70;99.90
10314;DHT22;5202;49.138;10.090;2023-09-19T08:48:45;16.80;99.90
10314;DHT22;5202;49.138;10.090;2023-09-19T08:51:26;16.80;99.80
10314;DHT22;5202;49.138;10.090;2023-09-19T08:54:03;16.80;99.70
10314;DHT22;5202;49.138;10.090;2023-09-19T08:56:33;16.90;99.80
10314;DHT22;5202;49.138;10.090;2023-09-19T08:59:03;17.00;99.90
10314;DHT22;5202;49.138;10.090;2023-09-19T09:01:35;17.10;99.40
10314;DHT22;5202;49.138;10.090;2023-09-19T09:04:08;17.10;98.80
10314;DHT22;5202;49.138;10.090;2023-09-19T09:06:42;17.10;98.40
10314;DHT22;5202;49.138;10.090;2023-09-19T09:09:12;17.10;98.20
10314;DHT22;5202;49.138;10.090;2023-09-19T09:11:41;17.20;98.10
10314;DHT22;5202;49.138;10.090;2023-09-19T09:14:09;17.30;97.40
10314;DHT22;5202;49.138;10.090;2023-09-19T09:16:38;17.30;97.70
10314;DHT22;5202;49.138;10.090;2023-09-19T09:19:06;17.40;97.30
10314;DHT22;5202;49.138;10.090;2023-09-19T09:21:35;17.30;97.40
10314;DHT22;5202;49.138;10.090;2023-09-19T09:24:29;17.30;97.30
10314;DHT22;5202;49.138;10.090;2023-09-19T09:27:03;17.40;97.50
10314;DHT22;5202;49.138;10.090;2023-09-19T09:29:44;17.40;97.10
10314;DHT22;5202;49.138;10.090;2023-09-19T09:32:18;17.40;96.70
10314;DHT22;5202;49.138;10.090;2023-09-19T09:34:50;17.40;97.10
10314;DHT22;5202;49.138;10.090;2023-09-19T09:37:20;17.40;96.40
10314;DHT22;5202;49.138;10.090;2023-09-19T09:39:52;17.50;96.70
10314;DHT22;5202;49.138;10.090;2023-09-19T09:42:30;17.60;96.50
10314;DHT22;5202;49.138;10.090;2023-09-19T09:45:16;17.60;95.40
10314;DHT22;5202;49.138;10.090;2023-09-19T09:47:47;17.60;95.20
10314;DHT22;5202;49.138;10.090;2023-09-19T09:50:27;17.70;94.80
10314;DHT22;5202;49.138;10.090;2023-09-19T09:53:21;17.70;94.90
10314;DHT22;5202;49.138;10.090;2023-09-19T09:56:01;17.60;94.70
10314;DHT22;5202;49.138;10.090;2023-09-19T09:58:33;17.60;95.00
10314;DHT22;5202;49.138;10.090;2023-09-19T10:01:04;17.60;95.10
10314;DHT22;5202;49.138;10.090;2023-09-19T10:03:38;17.60;95.70
10314;DHT22;5202;49.138;10.090;2023-09-19T10:06:11;17.70;95.60
10314;DHT22;5202;49.138;10.090;2023-09-19T10:09:02;17.60;95.40
10314;DHT22;5202;49.138;10.090;2023-09-19T10:11:43;17.70;95.40
10314;DHT22;5202;49.138;10.090;2023-09-19T10:14:13;17.90;94.60
10314;DHT22;5202;49.138;10.090;2023-09-19T10:16:46;18.00;94.40
10314;DHT22;5202;49.138;10.090;2023-09-19T10:19:21;18.00;94.50
10314;DHT22;5202;49.138;10.090;2023-09-19T10:21:54;18.00;94.30
10314;DHT22;5202;49.138;10.090;2023-09-19T10:24:24;18.00;94.40
10314;DHT22;5202;49.138;10.090;2023-09-19T10:26:55;18.30;94.50
10314;DHT22;5202;49.138;10.090;2023-09-19T10:29:24;18.40;94.50
10314;DHT22;5202;49.138;10.090;2023-09-19T10:31:58;18.50;94.10
10314;DHT22;5202;49.138;10.090;2023-09-19T10:34:29;18.40;94.10
10314;DHT22;5202;49.138;10.090;2023-09-19T10:36:59;18.30;93.90
10314;DHT22;5202;49.138;10.090;2023-09-19T10:39:33;18.30;94.30
10314;DHT22;5202;49.138;10.090;2023-09-19T10:42:04;18.40;93.70
10314;DHT22;5202;49.138;10.090;2023-09-19T10:44:38;18.30;93.70
10314;DHT22;5202;49.138;10.090;2023-09-19T10:47:09;18.30;94.40
10314;DHT22;5202;49.138;10.090;2023-09-19T10:49:43;18.30;93.90
10314;DHT22;5202;49.138;10.090;2023-09-19T10:52:15;18.10;94.10
10314;DHT22;5202;49.138;10.090;2023-09-19T10:54:48;18.00;94.30
10314;DHT22;5202;49.138;10.090;2023-09-19T10:57:22;18.00;94.20
10314;DHT22;5202;49.138;10.090;2023-09-19T11:00:03;18.00;94.10
10314;DHT22;5202;49.138;10.090;2023-09-19T11:03:16;18.10;94.10
10314;DHT22;5202;49.138;10.090;2023-09-19T11:06:02;18.30;94.70
10314;DHT22;5202;49.138;10.090;2023-09-19T11:08:58;18.50;94.00
10314;DHT22;5202;49.138;10.090;2023-09-19T11:11:50;18.50;94.20
10314;DHT22;5202;49.138;10.090;2023-09-19T11:14:41;18.70;94.30
10314;DHT22;5202;49.138;10.090;2023-09-19T11:17:30;18.70;94.60
10314;DHT22;5202;49.138;10.090;2023-09-19T11:20:20;18.70;94.20
10314;DHT22;5202;49.138;10.090;2023-09-19T11:23:21;18.60;94.30
10314;DHT22;5202;49.138;10.090;2023-09-19T11:25:53;18.50;94.40
10314;DHT22;5202;49.138;10.090;2023-09-19T11:28:29;18.60;94.10
10314;DHT22;5202;49.138;10.090;2023-09-19T11:31:42;18.70;93.90
10314;DHT22;5202;49.138;10.090;2023-09-19T11:34:45;18.80;94.30
10314;DHT22;5202;49.138;10.090;2023-09-19T11:40:38;18.60;93.90
10314;DHT22;5202;49.138;10.090;2023-09-19T11:43:32;18.50;93.70
10314;DHT22;5202;49.138;10.090;2023-09-19T11:46:08;18.60;93.80
10314;DHT22;5202;49.138;10.090;2023-09-19T11:48:42;18.70;93.30
10314;DHT22;5202;49.138;10.090;2023-09-19T11:51:16;18.80;93.20
10314;DHT22;5202;49.138;10.090;2023-09-19T11:53:54;19.10;92.80
10314;DHT22;5202;49.138;10.090;2023-09-19T11:56:24;19.30;93.10
10314;DHT22;5202;49.138;10.090;2023-09-19T11:58:55;19.50;93.00
10314;DHT22;5202;49.138;10.090;2023-09-19T12:01:29;19.60;91.60
10314;DHT22;5202;49.138;10.090;2023-09-19T12:04:08;19.60;91.50
10314;DHT22;5202;49.138;10.090;2023-09-19T12:06:56;19.70;91.80
10314;DHT22;5202;49.138;10.090;2023-09-19T12:09:25;19.70;91.90
10314;DHT22;5202;49.138;10.090;2023-09-19T12:11:54;19.70;91.60
10314;DHT22;5202;49.138;10.090;2023-09-19T12:14:22;19.70;91.80
10314;DHT22;5202;49.138;10.090;2023-09-19T12:16:54;19.70;91.40
10314;DHT22;5202;49.138;10.090;2023-09-19T12:19:25;19.80;92.10
10314;DHT22;5202;49.138;10.090;2023-09-19T12:21:55;19.90;92.50
10314;DHT22;5202;49.138;10.090;2023-09-19T12:24:26;20.30;91.20
10314;DHT22;5202;49.138;10.090;2023-09-19T12:27:01;20.40;90.40
10314;DHT22;5202;49.138;10.090;2023-09-19T12:29:42;20.40;90.50
10314;DHT22;5202;49.138;10.090;2023-09-19T12:32:11;20.20;91.00
10314;DHT22;5202;49.138;10.090;2023-09-19T12:34:50;20.20;91.40
10314;DHT22;5202;49.138;10.090;2023-09-19T12:37:20;20.30;91.40
10314;DHT22;5202;49.138;10.090;2023-09-19T12:39:51;20.50;91.30
10314;DHT22;5202;49.138;10.090;2023-09-19T12:42:23;20.80;91.00
10314;DHT22;5202;49.138;10.090;2023-09-19T12:44:56;20.80;90.20
10314;DHT22;5202;49.138;10.090;2023-09-19T12:47:28;20.80;90.50
10314;DHT22;5202;49.138;10.090;2023-09-19T12:50:09;20.70;90.10
10314;DHT22;5202;49.138;10.090;2023-09-19T12:52:45;20.80;90.30
10314;DHT22;5202;49.138;10.090;2023-09-19T12:55:21;20.80;90.10
10314;DHT22;5202;49.138;10.090;2023-09-19T12:58:03;20.80;89.30
10314;DHT22;5202;49.138;10.090;2023-09-19T13:00:37;20.90;88.80
10314;DHT22;5202;49.138;10.090;2023-09-19T13:03:12;20.80;89.60
10314;DHT22;5202;49.138;10.090;2023-09-19T13:05:51;20.80;89.10
10314;DHT22;5202;49.138;10.090;2023-09-19T13:08:25;20.80;88.90
10314;DHT22;5202;49.138;10.090;2023-09-19T13:11:01;20.90;88.70
10314;DHT22;5202;49.138;10.090;2023-09-19T13:13:38;21.10;88.70
10314;DHT22;5202;49.138;10.090;2023-09-19T13:16:08;21.50;87.90
10314;DHT22;5202;49.138;10.090;2023-09-19T13:18:45;21.50;87.70
10314;DHT22;5202;49.138;10.090;2023-09-19T13:21:28;21.50;86.90
10314;DHT22;5202;49.138;10.090;2023-09-19T13:24:19;21.60;86.60
10314;DHT22;5202;49.138;10.090;2023-09-19T13:26:50;21.40;88.00
10314;DHT22;5202;49.138;10.090;2023-09-19T13:29:18;21.20;86.60
10314;DHT22;5202;49.138;10.090;2023-09-19T13:31:47;21.10;87.00
10314;DHT22;5202;49.138;10.090;2023-09-19T13:34:16;21.20;86.40
10314;DHT22;5202;49.138;10.090;2023-09-19T13:36:46;21.30;86.50
10314;DHT22;5202;49.138;10.090;2023-09-19T13:39:15;21.20;85.90
10314;DHT22;5202;49.138;10.090;2023-09-19T13:41:44;21.40;86.10
10314;DHT22;5202;49.138;10.090;2023-09-19T13:44:15;21.40;85.30
10314;DHT22;5202;49.138;10.090;2023-09-19T13:46:44;21.40;85.40
10314;DHT22;5202;49.138;10.090;2023-09-19T13:49:14;21.50;84.10
10314;DHT22;5202;49.138;10.090;2023-09-19T13:51:48;21.40;84.80
10314;DHT22;5202;49.138;10.090;2023-09-19T13:54:16;21.50;83.40
10314;DHT22;5202;49.138;10.090;2023-09-19T13:56:45;21.20;83.60
10314;DHT22;5202;49.138;10.090;2023-09-19T13:59:14;21.00;83.90
10314;DHT22;5202;49.138;10.090;2023-09-19T14:01:42;21.10;83.50
10314;DHT22;5202;49.138;10.090;2023-09-19T14:04:18;21.10;83.10
10314;DHT22;5202;49.138;10.090;2023-09-19T14:06:59;21.00;82.90
10314;DHT22;5202;49.138;10.090;2023-09-19T14:09:27;21.00;84.20
10314;DHT22;5202;49.138;10.090;2023-09-19T14:11:56;21.00;83.90
10314;DHT22;5202;49.138;10.090;2023-09-19T14:14:24;21.10;84.50
10314;DHT22;5202;49.138;10.090;2023-09-19T14:16:53;21.20;83.50
10314;DHT22;5202;49.138;10.090;2023-09-19T14:19:22;21.40;83.40
10314;DHT22;5202;49.138;10.090;2023-09-19T14:21:51;21.70;83.00
10314;DHT22;5202;49.138;10.090;2023-09-19T14:24:23;21.70;81.60
10314;DHT22;5202;49.138;10.090;2023-09-19T14:26:52;21.70;82.20
10314;DHT22;5202;49.138;10.090;2023-09-19T14:29:20;21.60;81.90
10314;DHT22;5202;49.138;10.090;2023-09-19T14:31:48;21.70;82.80
10314;DHT22;5202;49.138;10.090;2023-09-19T14:34:19;21.90;81.60
10314;DHT22;5202;49.138;10.090;2023-09-19T14:36:47;21.80;81.90
10314;DHT22;5202;49.138;10.090;2023-09-19T14:39:16;21.70;82.00
10314;DHT22;5202;49.138;10.090;2023-09-19T14:41:48;21.60;82.00
10314;DHT22;5202;49.138;10.090;2023-09-19T14:44:16;21.60;82.50
10314;DHT22;5202;49.138;10.090;2023-09-19T14:46:45;21.60;81.30
10314;DHT22;5202;49.138;10.090;2023-09-19T14:49:13;21.70;81.80
10314;DHT22;5202;49.138;10.090;2023-09-19T14:51:43;21.90;82.50
10314;DHT22;5202;49.138;10.090;2023-09-19T14:54:14;22.30;81.30
10314;DHT22;5202;49.138;10.090;2023-09-19T14:56:44;22.20;80.30
10314;DHT22;5202;49.138;10.090;2023-09-19T14:59:13;22.20;80.60
10314;DHT22;5202;49.138;10.090;2023-09-19T15:01:43;22.00;79.80
10314;DHT22;5202;49.138;10.090;2023-09-19T15:04:11;21.90;80.40
10314;DHT22;5202;49.138;10.090;2023-09-19T15:06:40;21.90;80.10
10314;DHT22;5202;49.138;10.090;2023-09-19T15:09:08;21.90;80.70
10314;DHT22;5202;49.138;10.090;2023-09-19T15:11:38;21.90;81.10
10314;DHT22;5202;49.138;10.090;2023-09-19T15:14:06;21.90;80.50
10314;DHT22;5202;49.138;10.090;2023-09-19T15:16:36;21.80;80.20
10314;DHT22;5202;49.138;10.090;2023-09-19T15:19:05;21.70;80.40
10314;DHT22;5202;49.138;10.090;2023-09-19T15:21:34;21.60;80.80
10314;DHT22;5202;49.138;10.090;2023-09-19T15:24:05;21.60;80.80
10314;DHT22;5202;49.138;10.090;2023-09-19T15:26:36;21.50;80.30
10314;DHT22;5202;49.138;10.090;2023-09-19T15:29:06;21.30;80.80
10314;DHT22;5202;49.138;10.090;2023-09-19T15:31:37;21.40;80.30
10314;DHT22;5202;49.138;10.090;2023-09-19T15:34:06;21.30;80.60
10314;DHT22;5202;49.138;10.090;2023-09-19T15:36:34;21.30;80.60
10314;DHT22;5202;49.138;10.090;2023-09-19T15:39:04;21.40;80.40
10314;DHT22;5202;49.138;10.090;2023-09-19T15:41:35;21.40;80.50
10314;DHT22;5202;49.138;10.090;2023-09-19T15:44:11;21.30;80.30
10314;DHT22;5202;49.138;10.090;2023-09-19T15:46:43;21.10;80.60
10314;DHT22;5202;49.138;10.090;2023-09-19T15:49:11;21.00;81.30
10314;DHT22;5202;49.138;10.090;2023-09-19T15:51:40;20.90;81.40
10314;DHT22;5202;49.138;10.090;2023-09-19T15:54:11;20.80;81.20
10314;DHT22;5202;49.138;10.090;2023-09-19T15:56:41;20.70;81.80
10314;DHT22;5202;49.138;10.090;2023-09-19T15:59:11;20.70;82.70
10314;DHT22;5202;49.138;10.090;2023-09-19T16:01:42;20.60;82.80
10314;DHT22;5202;49.138;10.090;2023-09-19T16:04:12;20.50;82.70
10314;DHT22;5202;49.138;10.090;2023-09-19T16:06:41;20.50;82.50
10314;DHT22;5202;49.138;10.090;2023-09-19T16:09:10;20.50;83.10